sensor_id;sensor_type;location;lat;lon;timestamp;P1;durP1;ratioP1;P2;durP2;ratioP2
13445;SDS011;6795;51.232;3.764;2022-10-26T00:01:24;2.75;;;2.42;;
13445;SDS011;6795;51.232;3.764;2022-10-26T00:03:53;4.95;;;2.72;;
13445;SDS011;6795;51.232;3.764;2022-10-26T00:06:24;5.50;;;2.85;;
13445;SDS011;6795;51.232;3.764;2022-10-26T00:08:54;6.32;;;3.25;;
13445;SDS011;6795;51.232;3.764;2022-10-26T00:11:23;4.10;;;2.20;;
13445;SDS011;6795;51.232;3.764;2022-10-26T00:13:52;6.60;;;2.40;;
13445;SDS011;6795;51.232;3.764;2022-10-26T00:16:21;4.50;;;2.22;;
13445;SDS011;6795;51.232;3.764;2022-10-26T00:18:51;7.13;;;2.42;;
13445;SDS011;6795;51.232;3.764;2022-10-26T00:21:19;10.20;;;4.28;;
13445;SDS011;6795;51.232;3.764;2022-10-26T00:23:49;6.50;;;2.70;;
13445;SDS011;6795;51.232;3.764;2022-10-26T00:26:17;10.77;;;5.00;;
13445;SDS011;6795;51.232;3.764;2022-10-26T00:28:46;6.75;;;3.45;;
13445;SDS011;6795;51.232;3.764;2022-10-26T00:31:14;6.82;;;3.42;;
13445;SDS011;6795;51.232;3.764;2022-10-26T00:33:43;3.97;;;2.47;;
13445;SDS011;6795;51.232;3.764;2022-10-26T00:36:11;5.30;;;3.05;;
13445;SDS011;6795;51.232;3.764;2022-10-26T00:38:42;6.15;;;2.13;;
13445;SDS011;6795;51.232;3.764;2022-10-26T00:41:16;8.30;;;2.17;;
13445;SDS011;6795;51.232;3.764;2022-10-26T00:43:46;4.88;;;2.25;;
13445;SDS011;6795;51.232;3.764;2022-10-26T00:46:16;5.82;;;1.98;;
13445;SDS011;6795;51.232;3.764;2022-10-26T00:48:48;6.22;;;2.08;;
13445;SDS011;6795;51.232;3.764;2022-10-26T00:51:21;5.97;;;2.45;;
13445;SDS011;6795;51.232;3.764;2022-10-26T00:53:53;6.78;;;2.22;;
13445;SDS011;6795;51.232;3.764;2022-10-26T00:56:24;13.00;;;3.08;;
13445;SDS011;6795;51.232;3.764;2022-10-26T00:58:53;9.35;;;5.82;;
13445;SDS011;6795;51.232;3.764;2022-10-26T01:01:22;10.95;;;7.13;;
13445;SDS011;6795;51.232;3.764;2022-10-26T01:03:51;12.18;;;6.07;;
13445;SDS011;6795;51.232;3.764;2022-10-26T01:06:20;10.02;;;4.10;;
13445;SDS011;6795;51.232;3.764;2022-10-26T01:08:48;8.18;;;3.03;;
13445;SDS011;6795;51.232;3.764;2022-10-26T01:11:17;8.77;;;2.80;;
13445;SDS011;6795;51.232;3.764;2022-10-26T01:13:47;4.53;;;2.33;;
13445;SDS011;6795;51.232;3.764;2022-10-26T01:16:23;5.40;;;1.98;;
13445;SDS011;6795;51.232;3.764;2022-10-26T01:19:16;6.88;;;1.98;;
13445;SDS011;6795;51.232;3.764;2022-10-26T01:22:06;5.03;;;1.88;;
13445;SDS011;6795;51.232;3.764;2022-10-26T01:24:47;7.38;;;1.90;;
13445;SDS011;6795;51.232;3.764;2022-10-26T01:27:26;11.63;;;2.03;;
13445;SDS011;6795;51.232;3.764;2022-10-26T01:30:15;6.63;;;1.85;;
13445;SDS011;6795;51.232;3.764;2022-10-26T01:32:55;4.50;;;1.65;;
13445;SDS011;6795;51.232;3.764;2022-10-26T01:35:57;6.32;;;2.25;;
13445;SDS011;6795;51.232;3.764;2022-10-26T01:38:31;5.50;;;1.98;;
13445;SDS011;6795;51.232;3.764;2022-10-26T01:41:06;4.40;;;1.50;;
13445;SDS011;6795;51.232;3.764;2022-10-26T01:43:42;7.30;;;1.98;;
13445;SDS011;6795;51.232;3.764;2022-10-26T01:46:17;7.47;;;2.22;;
13445;SDS011;6795;51.232;3.764;2022-10-26T01:48:48;7.55;;;1.63;;
13445;SDS011;6795;51.232;3.764;2022-10-26T01:51:20;6.47;;;2.15;;
13445;SDS011;6795;51.232;3.764;2022-10-26T01:53:50;8.23;;;1.73;;
13445;SDS011;6795;51.232;3.764;2022-10-26T01:56:22;9.98;;;1.85;;
13445;SDS011;6795;51.232;3.764;2022-10-26T01:59:13;5.43;;;1.75;;
13445;SDS011;6795;51.232;3.764;2022-10-26T02:02:11;4.70;;;1.35;;
13445;SDS011;6795;51.232;3.764;2022-10-26T02:05:03;6.50;;;2.25;;
13445;SDS011;6795;51.232;3.764;2022-10-26T02:07:42;3.83;;;1.30;;
13445;SDS011;6795;51.232;3.764;2022-10-26T02:10:19;3.58;;;1.70;;
13445;SDS011;6795;51.232;3.764;2022-10-26T02:12:59;2.40;;;1.38;;
13445;SDS011;6795;51.232;3.764;2022-10-26T02:15:35;9.25;;;1.70;;
13445;SDS011;6795;51.232;3.764;2022-10-26T02:18:17;4.28;;;1.40;;
13445;SDS011;6795;51.232;3.764;2022-10-26T02:20:52;6.88;;;1.80;;
13445;SDS011;6795;51.232;3.764;2022-10-26T02:23:24;14.68;;;2.35;;
13445;SDS011;6795;51.232;3.764;2022-10-26T02:25:55;5.68;;;1.48;;
13445;SDS011;6795;51.232;3.764;2022-10-26T02:28:27;5.68;;;1.50;;
13445;SDS011;6795;51.232;3.764;2022-10-26T02:31:00;5.22;;;1.30;;
13445;SDS011;6795;51.232;3.764;2022-10-26T02:33:32;10.48;;;2.90;;
13445;SDS011;6795;51.232;3.764;2022-10-26T02:36:06;10.63;;;1.40;;
13445;SDS011;6795;51.232;3.764;2022-10-26T02:38:38;3.58;;;1.10;;
13445;SDS011;6795;51.232;3.764;2022-10-26T02:41:09;4.03;;;1.40;;
13445;SDS011;6795;51.232;3.764;2022-10-26T02:43:40;9.30;;;1.35;;
13445;SDS011;6795;51.232;3.764;2022-10-26T02:46:15;3.67;;;1.40;;
13445;SDS011;6795;51.232;3.764;2022-10-26T02:48:48;3.85;;;0.93;;
13445;SDS011;6795;51.232;3.764;2022-10-26T02:51:17;2.83;;;1.20;;
13445;SDS011;6795;51.232;3.764;2022-10-26T02:53:53;4.68;;;1.40;;
13445;SDS011;6795;51.232;3.764;2022-10-26T02:56:28;3.47;;;1.60;;
13445;SDS011;6795;51.232;3.764;2022-10-26T02:59:03;4.15;;;1.77;;
13445;SDS011;6795;51.232;3.764;2022-10-26T03:01:34;7.53;;;1.65;;
13445;SDS011;6795;51.232;3.764;2022-10-26T03:04:04;3.08;;;1.23;;
13445;SDS011;6795;51.232;3.764;2022-10-26T03:06:33;4.80;;;1.10;;
13445;SDS011;6795;51.232;3.764;2022-10-26T03:09:01;7.57;;;1.40;;
13445;SDS011;6795;51.232;3.764;2022-10-26T03:11:30;3.75;;;1.00;;
13445;SDS011;6795;51.232;3.764;2022-10-26T03:14:01;5.13;;;1.95;;
13445;SDS011;6795;51.232;3.764;2022-10-26T03:16:29;6.45;;;1.67;;
13445;SDS011;6795;51.232;3.764;2022-10-26T03:18:57;3.05;;;1.40;;
13445;SDS011;6795;51.232;3.764;2022-10-26T03:21:27;6.28;;;2.15;;
13445;SDS011;6795;51.232;3.764;2022-10-26T03:23:58;7.20;;;2.20;;
13445;SDS011;6795;51.232;3.764;2022-10-26T03:26:26;4.38;;;1.48;;
13445;SDS011;6795;51.232;3.764;2022-10-26T03:28:54;7.57;;;1.67;;
13445;SDS011;6795;51.232;3.764;2022-10-26T03:31:23;4.97;;;1.90;;
13445;SDS011;6795;51.232;3.764;2022-10-26T03:33:51;7.07;;;2.38;;
13445;SDS011;6795;51.232;3.764;2022-10-26T03:36:19;10.00;;;2.67;;
13445;SDS011;6795;51.232;3.764;2022-10-26T03:38:49;6.40;;;2.70;;
13445;SDS011;6795;51.232;3.764;2022-10-26T03:41:17;9.98;;;3.72;;
13445;SDS011;6795;51.232;3.764;2022-10-26T03:43:45;12.15;;;4.60;;
13445;SDS011;6795;51.232;3.764;2022-10-26T03:46:14;11.00;;;4.78;;
13445;SDS011;6795;51.232;3.764;2022-10-26T03:48:43;7.65;;;4.60;;
13445;SDS011;6795;51.232;3.764;2022-10-26T03:51:11;11.15;;;6.07;;
13445;SDS011;6795;51.232;3.764;2022-10-26T03:53:39;10.55;;;6.68;;
13445;SDS011;6795;51.232;3.764;2022-10-26T03:56:09;17.40;;;8.13;;
13445;SDS011;6795;51.232;3.764;2022-10-26T03:58:38;26.38;;;10.73;;
13445;SDS011;6795;51.232;3.764;2022-10-26T04:01:06;30.38;;;12.98;;
13445;SDS011;6795;51.232;3.764;2022-10-26T04:03:34;30.60;;;14.63;;
13445;SDS011;6795;51.232;3.764;2022-10-26T04:06:03;28.88;;;13.85;;
13445;SDS011;6795;51.232;3.764;2022-10-26T04:08:32;31.67;;;13.30;;
13445;SDS011;6795;51.232;3.764;2022-10-26T04:11:00;27.83;;;13.40;;
13445;SDS011;6795;51.232;3.764;2022-10-26T04:13:31;31.05;;;10.98;;
13445;SDS011;6795;51.232;3.764;2022-10-26T04:15:59;30.63;;;10.27;;
13445;SDS011;6795;51.232;3.764;2022-10-26T04:18:28;22.75;;;9.45;;
13445;SDS011;6795;51.232;3.764;2022-10-26T04:20:59;26.55;;;8.15;;
13445;SDS011;6795;51.232;3.764;2022-10-26T04:23:28;17.63;;;5.35;;
13445;SDS011;6795;51.232;3.764;2022-10-26T04:25:56;12.60;;;4.10;;
13445;SDS011;6795;51.232;3.764;2022-10-26T04:28:24;13.68;;;4.43;;
13445;SDS011;6795;51.232;3.764;2022-10-26T04:30:54;13.10;;;3.47;;
13445;SDS011;6795;51.232;3.764;2022-10-26T04:33:22;7.80;;;1.90;;
13445;SDS011;6795;51.232;3.764;2022-10-26T04:35:51;4.95;;;1.33;;
13445;SDS011;6795;51.232;3.764;2022-10-26T04:38:19;6.50;;;1.27;;
13445;SDS011;6795;51.232;3.764;2022-10-26T04:40:49;4.47;;;1.17;;
13445;SDS011;6795;51.232;3.764;2022-10-26T04:43:18;5.53;;;0.98;;
13445;SDS011;6795;51.232;3.764;2022-10-26T04:45:46;1.67;;;0.70;;
13445;SDS011;6795;51.232;3.764;2022-10-26T04:48:15;1.73;;;0.75;;
13445;SDS011;6795;51.232;3.764;2022-10-26T04:50:44;4.88;;;1.02;;
13445;SDS011;6795;51.232;3.764;2022-10-26T04:53:13;4.85;;;0.77;;
13445;SDS011;6795;51.232;3.764;2022-10-26T04:55:42;3.08;;;1.00;;
13445;SDS011;6795;51.232;3.764;2022-10-26T04:58:10;8.32;;;0.90;;
13445;SDS011;6795;51.232;3.764;2022-10-26T05:00:39;6.65;;;0.95;;
13445;SDS011;6795;51.232;3.764;2022-10-26T05:03:08;9.20;;;1.10;;
13445;SDS011;6795;51.232;3.764;2022-10-26T05:05:38;4.40;;;0.85;;
13445;SDS011;6795;51.232;3.764;2022-10-26T05:08:06;3.78;;;0.93;;
13445;SDS011;6795;51.232;3.764;2022-10-26T05:10:34;2.03;;;0.93;;
13445;SDS011;6795;51.232;3.764;2022-10-26T05:13:03;7.60;;;1.67;;
13445;SDS011;6795;51.232;3.764;2022-10-26T05:15:31;8.02;;;1.58;;
13445;SDS011;6795;51.232;3.764;2022-10-26T05:18:00;5.90;;;0.70;;
13445;SDS011;6795;51.232;3.764;2022-10-26T05:20:31;6.40;;;1.08;;
13445;SDS011;6795;51.232;3.764;2022-10-26T05:23:02;3.70;;;0.90;;
13445;SDS011;6795;51.232;3.764;2022-10-26T05:25:33;4.60;;;0.82;;
13445;SDS011;6795;51.232;3.764;2022-10-26T05:28:04;2.83;;;0.80;;
13445;SDS011;6795;51.232;3.764;2022-10-26T05:30:35;2.35;;;0.98;;
13445;SDS011;6795;51.232;3.764;2022-10-26T05:33:07;5.75;;;0.90;;
13445;SDS011;6795;51.232;3.764;2022-10-26T05:35:40;4.75;;;0.90;;
13445;SDS011;6795;51.232;3.764;2022-10-26T05:38:13;3.05;;;1.00;;
13445;SDS011;6795;51.232;3.764;2022-10-26T05:40:46;6.82;;;1.10;;
13445;SDS011;6795;51.232;3.764;2022-10-26T05:43:14;9.30;;;1.33;;
13445;SDS011;6795;51.232;3.764;2022-10-26T05:45:43;10.25;;;1.23;;
13445;SDS011;6795;51.232;3.764;2022-10-26T05:48:11;8.80;;;1.08;;
13445;SDS011;6795;51.232;3.764;2022-10-26T05:50:40;4.40;;;1.42;;
13445;SDS011;6795;51.232;3.764;2022-10-26T05:53:08;7.75;;;1.02;;
13445;SDS011;6795;51.232;3.764;2022-10-26T05:55:38;2.78;;;0.70;;
13445;SDS011;6795;51.232;3.764;2022-10-26T05:58:08;5.20;;;0.90;;
13445;SDS011;6795;51.232;3.764;2022-10-26T06:00:40;5.93;;;0.70;;
13445;SDS011;6795;51.232;3.764;2022-10-26T06:03:23;3.05;;;0.68;;
13445;SDS011;6795;51.232;3.764;2022-10-26T06:06:03;3.65;;;0.60;;
13445;SDS011;6795;51.232;3.764;2022-10-26T06:08:33;4.60;;;0.50;;
13445;SDS011;6795;51.232;3.764;2022-10-26T06:11:06;4.10;;;0.65;;
13445;SDS011;6795;51.232;3.764;2022-10-26T06:13:36;4.15;;;0.75;;
13445;SDS011;6795;51.232;3.764;2022-10-26T06:16:13;3.10;;;0.60;;
13445;SDS011;6795;51.232;3.764;2022-10-26T06:18:58;1.77;;;0.50;;
13445;SDS011;6795;51.232;3.764;2022-10-26T06:21:37;3.13;;;0.50;;
13445;SDS011;6795;51.232;3.764;2022-10-26T06:24:19;2.10;;;0.60;;
13445;SDS011;6795;51.232;3.764;2022-10-26T06:26:58;2.70;;;0.50;;
13445;SDS011;6795;51.232;3.764;2022-10-26T06:29:37;4.30;;;0.68;;
13445;SDS011;6795;51.232;3.764;2022-10-26T06:32:14;2.60;;;0.50;;
13445;SDS011;6795;51.232;3.764;2022-10-26T06:34:43;3.22;;;0.50;;
13445;SDS011;6795;51.232;3.764;2022-10-26T06:37:13;2.15;;;0.60;;
13445;SDS011;6795;51.232;3.764;2022-10-26T06:39:43;4.35;;;0.73;;
13445;SDS011;6795;51.232;3.764;2022-10-26T06:42:19;3.50;;;0.70;;
13445;SDS011;6795;51.232;3.764;2022-10-26T06:44:48;4.05;;;0.70;;
13445;SDS011;6795;51.232;3.764;2022-10-26T06:47:17;4.70;;;0.93;;
13445;SDS011;6795;51.232;3.764;2022-10-26T06:49:55;2.30;;;0.88;;
13445;SDS011;6795;51.232;3.764;2022-10-26T06:52:30;3.28;;;0.73;;
13445;SDS011;6795;51.232;3.764;2022-10-26T06:55:02;9.15;;;1.63;;
13445;SDS011;6795;51.232;3.764;2022-10-26T06:57:33;2.75;;;0.80;;
13445;SDS011;6795;51.232;3.764;2022-10-26T07:00:04;5.20;;;0.88;;
13445;SDS011;6795;51.232;3.764;2022-10-26T07:02:41;6.40;;;1.30;;
13445;SDS011;6795;51.232;3.764;2022-10-26T07:05:09;3.50;;;1.10;;
13445;SDS011;6795;51.232;3.764;2022-10-26T07:07:39;3.33;;;0.70;;
13445;SDS011;6795;51.232;3.764;2022-10-26T07:10:08;4.75;;;0.80;;
13445;SDS011;6795;51.232;3.764;2022-10-26T07:12:38;3.88;;;0.60;;
13445;SDS011;6795;51.232;3.764;2022-10-26T07:15:07;1.98;;;0.60;;
13445;SDS011;6795;51.232;3.764;2022-10-26T07:17:41;2.10;;;0.70;;
13445;SDS011;6795;51.232;3.764;2022-10-26T07:20:10;2.22;;;0.80;;
13445;SDS011;6795;51.232;3.764;2022-10-26T07:22:39;1.50;;;0.45;;
13445;SDS011;6795;51.232;3.764;2022-10-26T07:25:08;3.55;;;0.80;;
13445;SDS011;6795;51.232;3.764;2022-10-26T07:27:39;3.47;;;0.60;;
13445;SDS011;6795;51.232;3.764;2022-10-26T07:30:08;4.90;;;0.70;;
13445;SDS011;6795;51.232;3.764;2022-10-26T07:32:37;1.95;;;0.52;;
13445;SDS011;6795;51.232;3.764;2022-10-26T07:35:05;2.60;;;0.70;;
13445;SDS011;6795;51.232;3.764;2022-10-26T07:37:34;1.20;;;0.80;;
13445;SDS011;6795;51.232;3.764;2022-10-26T07:40:03;3.47;;;1.35;;
13445;SDS011;6795;51.232;3.764;2022-10-26T07:42:33;4.00;;;0.88;;
13445;SDS011;6795;51.232;3.764;2022-10-26T07:45:05;1.73;;;0.80;;
13445;SDS011;6795;51.232;3.764;2022-10-26T07:47:34;1.25;;;0.50;;
13445;SDS011;6795;51.232;3.764;2022-10-26T07:50:02;1.40;;;0.85;;
13445;SDS011;6795;51.232;3.764;2022-10-26T07:52:31;3.25;;;0.80;;
13445;SDS011;6795;51.232;3.764;2022-10-26T07:55:02;4.82;;;0.55;;
13445;SDS011;6795;51.232;3.764;2022-10-26T07:57:30;4.18;;;1.10;;
13445;SDS011;6795;51.232;3.764;2022-10-26T08:00:00;1.83;;;0.70;;
13445;SDS011;6795;51.232;3.764;2022-10-26T08:02:31;4.15;;;0.55;;
13445;SDS011;6795;51.232;3.764;2022-10-26T08:05:01;2.70;;;0.95;;
13445;SDS011;6795;51.232;3.764;2022-10-26T08:07:30;4.82;;;0.85;;
13445;SDS011;6795;51.232;3.764;2022-10-26T08:09:59;2.28;;;0.70;;
13445;SDS011;6795;51.232;3.764;2022-10-26T08:12:27;3.72;;;0.93;;
13445;SDS011;6795;51.232;3.764;2022-10-26T08:14:55;3.20;;;0.70;;
13445;SDS011;6795;51.232;3.764;2022-10-26T08:17:24;2.63;;;0.70;;
13445;SDS011;6795;51.232;3.764;2022-10-26T08:19:53;2.10;;;0.57;;
13445;SDS011;6795;51.232;3.764;2022-10-26T08:22:22;3.05;;;0.80;;
13445;SDS011;6795;51.232;3.764;2022-10-26T08:24:50;4.97;;;1.08;;
13445;SDS011;6795;51.232;3.764;2022-10-26T08:27:18;3.10;;;0.82;;
13445;SDS011;6795;51.232;3.764;2022-10-26T08:29:46;2.70;;;0.73;;
13445;SDS011;6795;51.232;3.764;2022-10-26T08:32:15;5.10;;;1.65;;
13445;SDS011;6795;51.232;3.764;2022-10-26T08:34:43;1.55;;;0.70;;
13445;SDS011;6795;51.232;3.764;2022-10-26T08:37:12;3.13;;;0.80;;
13445;SDS011;6795;51.232;3.764;2022-10-26T08:39:41;3.08;;;0.60;;
13445;SDS011;6795;51.232;3.764;2022-10-26T08:42:11;4.68;;;0.80;;
13445;SDS011;6795;51.232;3.764;2022-10-26T08:44:44;6.97;;;0.80;;
13445;SDS011;6795;51.232;3.764;2022-10-26T08:47:16;1.33;;;0.57;;
13445;SDS011;6795;51.232;3.764;2022-10-26T08:49:48;4.07;;;1.38;;
13445;SDS011;6795;51.232;3.764;2022-10-26T08:52:23;2.85;;;0.88;;
13445;SDS011;6795;51.232;3.764;2022-10-26T08:54:58;2.03;;;0.80;;
13445;SDS011;6795;51.232;3.764;2022-10-26T08:57:30;4.35;;;1.92;;
13445;SDS011;6795;51.232;3.764;2022-10-26T09:00:04;1.67;;;0.65;;
13445;SDS011;6795;51.232;3.764;2022-10-26T09:02:33;6.78;;;0.90;;
13445;SDS011;6795;51.232;3.764;2022-10-26T09:05:02;2.97;;;0.70;;
13445;SDS011;6795;51.232;3.764;2022-10-26T09:07:35;2.90;;;0.80;;
13445;SDS011;6795;51.232;3.764;2022-10-26T09:10:14;4.18;;;0.85;;
13445;SDS011;6795;51.232;3.764;2022-10-26T09:12:58;3.22;;;0.80;;
13445;SDS011;6795;51.232;3.764;2022-10-26T09:15:33;0.50;;;0.50;;
13445;SDS011;6795;51.232;3.764;2022-10-26T09:18:15;3.13;;;0.75;;
13445;SDS011;6795;51.232;3.764;2022-10-26T09:20:59;4.82;;;1.48;;
13445;SDS011;6795;51.232;3.764;2022-10-26T09:23:48;1.38;;;0.88;;
13445;SDS011;6795;51.232;3.764;2022-10-26T09:26:36;4.82;;;1.05;;
13445;SDS011;6795;51.232;3.764;2022-10-26T09:29:11;2.80;;;1.05;;
13445;SDS011;6795;51.232;3.764;2022-10-26T09:31:41;6.40;;;1.02;;
13445;SDS011;6795;51.232;3.764;2022-10-26T09:34:15;2.88;;;1.00;;
13445;SDS011;6795;51.232;3.764;2022-10-26T09:36:53;4.97;;;0.93;;
13445;SDS011;6795;51.232;3.764;2022-10-26T09:39:32;3.10;;;0.93;;
13445;SDS011;6795;51.232;3.764;2022-10-26T09:42:09;2.90;;;1.00;;
13445;SDS011;6795;51.232;3.764;2022-10-26T09:44:44;6.55;;;1.13;;
13445;SDS011;6795;51.232;3.764;2022-10-26T09:47:22;5.35;;;1.20;;
13445;SDS011;6795;51.232;3.764;2022-10-26T09:50:00;4.47;;;1.10;;
13445;SDS011;6795;51.232;3.764;2022-10-26T09:52:33;2.40;;;0.80;;
13445;SDS011;6795;51.232;3.764;2022-10-26T09:55:03;6.00;;;0.90;;
13445;SDS011;6795;51.232;3.764;2022-10-26T09:57:32;3.05;;;0.90;;
13445;SDS011;6795;51.232;3.764;2022-10-26T10:00:00;3.55;;;0.90;;
13445;SDS011;6795;51.232;3.764;2022-10-26T10:02:35;2.97;;;0.73;;
13445;SDS011;6795;51.232;3.764;2022-10-26T10:05:24;3.42;;;0.80;;
13445;SDS011;6795;51.232;3.764;2022-10-26T10:08:16;3.65;;;0.85;;
13445;SDS011;6795;51.232;3.764;2022-10-26T10:11:00;11.55;;;0.90;;
13445;SDS011;6795;51.232;3.764;2022-10-26T10:13:31;2.88;;;0.88;;
13445;SDS011;6795;51.232;3.764;2022-10-26T10:16:03;4.82;;;0.80;;
13445;SDS011;6795;51.232;3.764;2022-10-26T10:18:33;2.58;;;0.70;;
13445;SDS011;6795;51.232;3.764;2022-10-26T10:21:02;4.30;;;0.70;;
13445;SDS011;6795;51.232;3.764;2022-10-26T10:23:32;4.30;;;0.63;;
13445;SDS011;6795;51.232;3.764;2022-10-26T10:26:06;4.95;;;0.90;;
13445;SDS011;6795;51.232;3.764;2022-10-26T10:28:38;1.83;;;0.40;;
13445;SDS011;6795;51.232;3.764;2022-10-26T10:31:18;2.80;;;0.50;;
13445;SDS011;6795;51.232;3.764;2022-10-26T10:33:47;4.97;;;0.77;;
13445;SDS011;6795;51.232;3.764;2022-10-26T10:36:17;1.90;;;0.70;;
13445;SDS011;6795;51.232;3.764;2022-10-26T10:38:47;1.67;;;0.50;;
13445;SDS011;6795;51.232;3.764;2022-10-26T10:41:18;1.35;;;0.50;;
13445;SDS011;6795;51.232;3.764;2022-10-26T10:43:53;5.25;;;0.60;;
13445;SDS011;6795;51.232;3.764;2022-10-26T10:46:25;2.83;;;0.50;;
13445;SDS011;6795;51.232;3.764;2022-10-26T10:48:59;3.85;;;0.80;;
13445;SDS011;6795;51.232;3.764;2022-10-26T10:51:30;2.35;;;0.90;;
13445;SDS011;6795;51.232;3.764;2022-10-26T10:54:04;1.50;;;0.50;;
13445;SDS011;6795;51.232;3.764;2022-10-26T10:56:45;2.55;;;0.50;;
13445;SDS011;6795;51.232;3.764;2022-10-26T11:05:21;2.22;;;0.57;;
13445;SDS011;6795;51.232;3.764;2022-10-26T11:07:55;3.20;;;0.50;;
13445;SDS011;6795;51.232;3.764;2022-10-26T11:10:32;4.55;;;0.68;;
13445;SDS011;6795;51.232;3.764;2022-10-26T11:13:05;2.35;;;0.50;;
13445;SDS011;6795;51.232;3.764;2022-10-26T11:15:41;1.55;;;0.30;;
13445;SDS011;6795;51.232;3.764;2022-10-26T11:18:14;1.48;;;0.30;;
13445;SDS011;6795;51.232;3.764;2022-10-26T11:20:47;1.92;;;0.40;;
13445;SDS011;6795;51.232;3.764;2022-10-26T11:23:19;4.97;;;0.45;;
13445;SDS011;6795;51.232;3.764;2022-10-26T11:25:52;4.05;;;0.65;;
13445;SDS011;6795;51.232;3.764;2022-10-26T11:28:34;1.48;;;0.32;;
13445;SDS011;6795;51.232;3.764;2022-10-26T11:31:09;6.78;;;0.50;;
13445;SDS011;6795;51.232;3.764;2022-10-26T11:33:41;5.28;;;0.73;;
13445;SDS011;6795;51.232;3.764;2022-10-26T11:36:13;2.90;;;0.30;;
13445;SDS011;6795;51.232;3.764;2022-10-26T11:38:48;1.35;;;0.45;;
13445;SDS011;6795;51.232;3.764;2022-10-26T11:41:24;3.40;;;0.32;;
13445;SDS011;6795;51.232;3.764;2022-10-26T11:44:00;4.63;;;0.30;;
13445;SDS011;6795;51.232;3.764;2022-10-26T11:46:38;6.90;;;0.60;;
13445;SDS011;6795;51.232;3.764;2022-10-26T11:49:13;2.70;;;0.47;;
13445;SDS011;6795;51.232;3.764;2022-10-26T11:51:47;4.40;;;0.60;;
13445;SDS011;6795;51.232;3.764;2022-10-26T11:54:19;3.78;;;0.90;;
13445;SDS011;6795;51.232;3.764;2022-10-26T11:56:52;1.65;;;0.38;;
13445;SDS011;6795;51.232;3.764;2022-10-26T11:59:23;3.47;;;0.55;;
13445;SDS011;6795;51.232;3.764;2022-10-26T12:02:01;4.00;;;0.50;;
13445;SDS011;6795;51.232;3.764;2022-10-26T12:04:34;3.45;;;0.50;;
13445;SDS011;6795;51.232;3.764;2022-10-26T12:07:07;4.03;;;0.57;;
13445;SDS011;6795;51.232;3.764;2022-10-26T12:09:40;6.50;;;0.43;;
13445;SDS011;6795;51.232;3.764;2022-10-26T12:12:12;9.55;;;0.47;;
13445;SDS011;6795;51.232;3.764;2022-10-26T12:14:48;1.65;;;0.40;;
13445;SDS011;6795;51.232;3.764;2022-10-26T12:17:24;2.70;;;0.32;;
13445;SDS011;6795;51.232;3.764;2022-10-26T12:19:59;4.97;;;0.38;;
13445;SDS011;6795;51.232;3.764;2022-10-26T12:22:35;3.55;;;0.50;;
13445;SDS011;6795;51.232;3.764;2022-10-26T12:25:07;5.93;;;0.57;;
13445;SDS011;6795;51.232;3.764;2022-10-26T12:27:50;2.90;;;0.45;;
13445;SDS011;6795;51.232;3.764;2022-10-26T12:30:27;4.15;;;0.60;;
13445;SDS011;6795;51.232;3.764;2022-10-26T12:32:59;3.63;;;0.52;;
13445;SDS011;6795;51.232;3.764;2022-10-26T12:35:40;2.65;;;0.40;;
13445;SDS011;6795;51.232;3.764;2022-10-26T12:41:21;4.38;;;0.40;;
13445;SDS011;6795;51.232;3.764;2022-10-26T12:43:54;3.08;;;0.50;;
13445;SDS011;6795;51.232;3.764;2022-10-26T12:58:21;2.53;;;0.65;;
13445;SDS011;6795;51.232;3.764;2022-10-26T13:01:17;2.13;;;0.40;;
13445;SDS011;6795;51.232;3.764;2022-10-26T13:04:06;2.45;;;0.40;;
13445;SDS011;6795;51.232;3.764;2022-10-26T13:07:12;7.07;;;0.50;;
13445;SDS011;6795;51.232;3.764;2022-10-26T13:09:49;5.00;;;0.40;;
13445;SDS011;6795;51.232;3.764;2022-10-26T13:12:26;3.50;;;0.47;;
13445;SDS011;6795;51.232;3.764;2022-10-26T13:15:03;2.90;;;0.40;;
13445;SDS011;6795;51.232;3.764;2022-10-26T13:17:33;1.35;;;0.40;;
13445;SDS011;6795;51.232;3.764;2022-10-26T13:20:02;4.03;;;0.30;;
13445;SDS011;6795;51.232;3.764;2022-10-26T13:22:32;6.63;;;0.93;;
13445;SDS011;6795;51.232;3.764;2022-10-26T13:25:20;3.05;;;0.40;;
13445;SDS011;6795;51.232;3.764;2022-10-26T13:27:56;3.70;;;0.30;;
13445;SDS011;6795;51.232;3.764;2022-10-26T13:30:41;2.55;;;0.60;;
13445;SDS011;6795;51.232;3.764;2022-10-26T13:33:29;3.92;;;0.75;;
13445;SDS011;6795;51.232;3.764;2022-10-26T13:36:05;5.03;;;0.52;;
13445;SDS011;6795;51.232;3.764;2022-10-26T13:38:44;2.70;;;0.40;;
13445;SDS011;6795;51.232;3.764;2022-10-26T13:41:20;2.58;;;0.40;;
13445;SDS011;6795;51.232;3.764;2022-10-26T13:43:59;2.22;;;0.63;;
13445;SDS011;6795;51.232;3.764;2022-10-26T13:46:33;1.10;;;0.40;;
13445;SDS011;6795;51.232;3.764;2022-10-26T13:49:06;4.55;;;0.63;;
13445;SDS011;6795;51.232;3.764;2022-10-26T13:51:42;6.65;;;1.27;;
13445;SDS011;6795;51.232;3.764;2022-10-26T13:54:23;14.55;;;4.55;;
13445;SDS011;6795;51.232;3.764;2022-10-26T13:57:00;4.70;;;1.10;;
13445;SDS011;6795;51.232;3.764;2022-10-26T13:59:37;3.20;;;0.40;;
13445;SDS011;6795;51.232;3.764;2022-10-26T14:02:14;4.80;;;0.80;;
13445;SDS011;6795;51.232;3.764;2022-10-26T14:04:45;7.63;;;0.50;;
13445;SDS011;6795;51.232;3.764;2022-10-26T14:07:15;2.47;;;0.40;;
13445;SDS011;6795;51.232;3.764;2022-10-26T14:09:50;4.68;;;0.30;;
13445;SDS011;6795;51.232;3.764;2022-10-26T14:12:21;5.88;;;0.52;;
13445;SDS011;6795;51.232;3.764;2022-10-26T14:14:51;2.15;;;0.40;;
13445;SDS011;6795;51.232;3.764;2022-10-26T14:17:21;5.28;;;0.55;;
13445;SDS011;6795;51.232;3.764;2022-10-26T14:19:52;3.90;;;0.77;;
13445;SDS011;6795;51.232;3.764;2022-10-26T14:22:21;2.78;;;0.40;;
13445;SDS011;6795;51.232;3.764;2022-10-26T14:24:53;1.60;;;0.70;;
13445;SDS011;6795;51.232;3.764;2022-10-26T14:27:25;8.25;;;0.55;;
13445;SDS011;6795;51.232;3.764;2022-10-26T14:29:54;4.13;;;0.60;;
13445;SDS011;6795;51.232;3.764;2022-10-26T14:32:43;3.80;;;0.30;;
13445;SDS011;6795;51.232;3.764;2022-10-26T14:35:11;2.97;;;0.30;;
13445;SDS011;6795;51.232;3.764;2022-10-26T14:37:41;2.33;;;0.40;;
13445;SDS011;6795;51.232;3.764;2022-10-26T14:40:14;3.35;;;0.30;;
13445;SDS011;6795;51.232;3.764;2022-10-26T14:42:46;4.90;;;0.40;;
13445;SDS011;6795;51.232;3.764;2022-10-26T14:45:19;2.60;;;0.57;;
13445;SDS011;6795;51.232;3.764;2022-10-26T14:48:17;2.22;;;0.55;;
13445;SDS011;6795;51.232;3.764;2022-10-26T14:50:58;6.22;;;0.57;;
13445;SDS011;6795;51.232;3.764;2022-10-26T14:53:29;3.90;;;0.40;;
13445;SDS011;6795;51.232;3.764;2022-10-26T14:56:01;2.42;;;0.30;;
13445;SDS011;6795;51.232;3.764;2022-10-26T14:58:33;1.30;;;0.60;;
13445;SDS011;6795;51.232;3.764;2022-10-26T15:04:03;1.90;;;0.40;;
13445;SDS011;6795;51.232;3.764;2022-10-26T15:06:39;3.17;;;0.50;;
13445;SDS011;6795;51.232;3.764;2022-10-26T15:11:59;6.80;;;0.50;;
13445;SDS011;6795;51.232;3.764;2022-10-26T15:14:31;4.18;;;0.60;;
13445;SDS011;6795;51.232;3.764;2022-10-26T15:17:01;2.72;;;0.38;;
13445;SDS011;6795;51.232;3.764;2022-10-26T15:19:30;3.33;;;0.70;;
13445;SDS011;6795;51.232;3.764;2022-10-26T15:21:58;3.58;;;0.40;;
13445;SDS011;6795;51.232;3.764;2022-10-26T15:24:31;3.47;;;0.43;;
13445;SDS011;6795;51.232;3.764;2022-10-26T15:27:11;2.88;;;0.30;;
13445;SDS011;6795;51.232;3.764;2022-10-26T15:29:43;2.75;;;0.50;;
13445;SDS011;6795;51.232;3.764;2022-10-26T15:32:17;3.85;;;0.65;;
13445;SDS011;6795;51.232;3.764;2022-10-26T15:34:48;3.63;;;0.45;;
13445;SDS011;6795;51.232;3.764;2022-10-26T15:37:31;2.70;;;0.30;;
13445;SDS011;6795;51.232;3.764;2022-10-26T15:40:00;3.83;;;0.50;;
13445;SDS011;6795;51.232;3.764;2022-10-26T15:42:28;3.08;;;0.43;;
13445;SDS011;6795;51.232;3.764;2022-10-26T15:44:58;1.55;;;0.22;;
13445;SDS011;6795;51.232;3.764;2022-10-26T15:47:27;3.35;;;0.40;;
13445;SDS011;6795;51.232;3.764;2022-10-26T15:49:59;1.73;;;0.35;;
13445;SDS011;6795;51.232;3.764;2022-10-26T15:52:27;5.65;;;0.90;;
13445;SDS011;6795;51.232;3.764;2022-10-26T15:54:57;1.15;;;0.35;;
13445;SDS011;6795;51.232;3.764;2022-10-26T15:57:26;3.33;;;0.55;;
13445;SDS011;6795;51.232;3.764;2022-10-26T15:59:54;3.38;;;0.30;;
13445;SDS011;6795;51.232;3.764;2022-10-26T16:02:24;1.98;;;0.30;;